Time;durP1;ratioP1;P1;durP2;ratioP2;P2;SDS_P1;SDS_P2;PMS_P1;PMS_P2;Temp;Humidity;BMP_temperature;BMP_pressure;BME280_temperature;BME280_humidity;BME280_pressure;Samples;Min_cycle;Max_cycle;Signal;HPM_P1;HPM_P2
2023/03/28 00:01:02;;;;;;;;;11.00;7.00;;;;;-2.00;73.83;98155.56;4893951;28;102491;-71
2023/03/28 00:03:34;;;;;;;;;7.33;5.67;;;;;-1.99;73.67;98146.66;4907851;28;102992;-71
2023/03/28 00:06:04;;;;;;;;;10.00;5.00;;;;;-2.02;72.21;98149.56;4897502;28;104607;-71
2023/03/28 00:08:44;;;;;;;;;10.00;4.67;;;;;-1.97;72.04;98150.00;4891185;28;102777;-71
2023/03/28 00:11:29;;;;;;;;;4.00;3.33;;;;;-1.96;71.63;98149.03;4904675;28;102281;-71
2023/03/28 00:14:07;;;;;;;;;4.67;4.00;;;;;-1.95;71.92;98150.72;4910989;28;102495;-71
2023/03/28 00:16:53;;;;;;;;;1.67;1.00;;;;;-1.95;73.26;98142.75;4909808;28;103087;-71
2023/03/28 00:19:39;;;;;;;;;2.00;2.00;;;;;-1.96;73.24;98145.53;4908408;28;102658;-71
2023/03/28 00:22:32;;;;;;;;;7.00;5.00;;;;;-1.96;71.93;98151.69;4899786;28;102277;-71
2023/03/28 00:25:07;;;;;;;;;2.00;2.00;;;;;-1.99;72.38;98146.66;4903753;28;103134;-71
2023/03/28 00:27:35;;;;;;;;;2.00;1.00;;;;;-1.99;72.82;98140.50;4906784;28;104040;-71
2023/03/28 00:30:04;;;;;;;;;1.67;1.67;;;;;-2.00;73.21;98152.91;4907940;28;102400;-71
2023/03/28 00:32:32;;;;;;;;;0.00;0.00;;;;;-2.00;72.35;98141.47;4912855;28;102464;-70
2023/03/28 00:34:59;;;;;;;;;0.00;0.00;;;;;-2.02;73.06;98138.97;4896881;28;102104;-71
2023/03/28 00:37:26;;;;;;;;;4.00;2.67;;;;;-2.03;72.81;98137.31;4905902;28;104046;-72
2023/03/28 00:39:53;;;;;;;;;7.00;5.00;;;;;-2.07;73.69;98133.22;4897149;28;102902;-72
2023/03/28 00:42:22;;;;;;;;;5.00;4.00;;;;;-2.12;74.13;98139.91;4914758;28;102380;-72
2023/03/28 00:44:53;;;;;;;;;5.00;4.00;;;;;-2.10;73.91;98143.25;4915635;28;102495;-70
2023/03/28 00:47:51;;;;;;;;;5.00;4.00;;;;;-2.11;74.34;98146.84;4902830;28;108638;-70
2023/03/28 00:50:36;;;;;;;;;7.33;4.67;;;;;-2.15;75.00;98143.66;4912363;28;102117;-71
2023/03/28 00:53:12;;;;;;;;;5.00;4.00;;;;;-2.17;74.99;98147.41;4907343;28;101986;-70
2023/03/28 00:55:45;;;;;;;;;3.33;3.33;;;;;-2.25;74.88;98146.25;4916120;28;102047;-70
2023/03/28 00:58:16;;;;;;;;;3.67;2.00;;;;;-2.21;74.79;98146.00;4909765;28;104212;-71
2023/03/28 01:00:47;;;;;;;;;6.33;4.67;;;;;-2.21;75.09;98152.16;4871886;28;102863;-70
2023/03/28 01:03:18;;;;;;;;;7.33;5.00;;;;;-2.23;75.77;98154.06;4901430;28;102236;-71
2023/03/28 01:05:46;;;;;;;;;4.00;4.00;;;;;-2.27;75.06;98152.66;4892622;28;105074;-70
2023/03/28 01:08:19;;;;;;;;;8.00;6.33;;;;;-2.45;75.19;98133.91;4880152;28;104020;-70
2023/03/28 01:10:47;;;;;;;;;7.00;7.00;;;;;-2.39;75.13;98145.78;4901063;28;105385;-71
2023/03/28 01:13:30;;;;;;;;;11.00;7.00;;;;;-2.43;75.80;98149.66;4903704;28;102327;-71
2023/03/28 01:16:19;;;;;;;;;4.00;4.00;;;;;-2.47;76.25;98140.28;4903284;28;102180;-70
2023/03/28 01:19:01;;;;;;;;;5.67;5.67;;;;;-2.48;76.63;98149.22;4902723;28;106466;-70
2023/03/28 01:22:23;;;;;;;;;10.67;7.67;;;;;-2.48;77.10;98146.56;4906288;28;102047;-70
2023/03/28 01:25:38;;;;;;;;;4.00;2.00;;;;;-2.52;76.41;98147.81;4900748;28;102472;-70
2023/03/28 01:28:43;;;;;;;;;7.67;5.00;;;;;-2.48;77.14;98146.56;4905636;28;102388;-69
2023/03/28 01:31:36;;;;;;;;;11.67;11.00;;;;;-2.58;77.15;98143.88;4897908;28;108780;-69
2023/03/28 01:34:27;;;;;;;;;13.00;11.00;;;;;-2.61;76.48;98144.09;4907078;28;103186;-69
2023/03/28 01:37:20;;;;;;;;;10.00;8.00;;;;;-2.65;76.59;98147.13;4898610;28;102555;-69
2023/03/28 01:40:35;;;;;;;;;10.33;7.67;;;;;-2.67;77.44;98138.50;4906848;28;108795;-70
2023/03/28 01:43:05;;;;;;;;;8.33;6.33;;;;;-2.72;78.17;98138.91;4904422;28;108623;-70
2023/03/28 01:46:03;;;;;;;;;8.67;8.00;;;;;-2.72;77.74;98131.81;4888743;28;102335;-71
2023/03/28 01:48:48;;;;;;;;;7.00;4.67;;;;;-2.72;79.17;98131.81;4904504;28;102085;-70
2023/03/28 01:51:39;;;;;;;;;4.00;4.00;;;;;-2.68;79.64;98139.47;4899898;28;102565;-70
2023/03/28 01:54:30;;;;;;;;;5.67;4.67;;;;;-2.71;79.22;98135.28;4910397;28;108663;-68
2023/03/28 01:57:05;;;;;;;;;5.00;4.00;;;;;-2.68;80.55;98142.97;4894779;28;103313;-70
2023/03/28 01:59:35;;;;;;;;;5.67;5.00;;;;;-2.66;81.03;98134.91;4910560;28;103482;-70
2023/03/28 02:02:05;;;;;;;;;5.00;4.00;;;;;-2.62;80.50;98138.97;4898822;28;102427;-70
2023/03/28 02:04:35;;;;;;;;;2.00;2.00;;;;;-2.56;79.81;98135.78;4906019;28;108775;-70
2023/03/28 02:07:03;;;;;;;;;4.33;3.33;;;;;-2.52;80.08;98137.22;4908703;28;102355;-70
2023/03/28 02:09:33;;;;;;;;;4.00;3.33;;;;;-2.47;79.12;98135.81;4905665;28;102057;-70
2023/03/28 02:12:07;;;;;;;;;4.67;4.67;;;;;-2.37;80.80;98141.19;4901769;28;102396;-71
2023/03/28 02:14:41;;;;;;;;;6.67;4.33;;;;;-2.47;79.88;98113.81;4900958;28;108646;-70
2023/03/28 02:17:14;;;;;;;;;10.33;8.67;;;;;-2.22;79.20;98131.91;4903648;28;103048;-70
2023/03/28 02:19:49;;;;;;;;;22.67;19.67;;;;;-2.20;80.66;98129.97;4905286;28;103702;-70
2023/03/28 02:22:16;;;;;;;;;27.67;21.33;;;;;-2.14;82.05;98125.94;4908370;28;101988;-71
2023/03/28 02:24:49;;;;;;;;;35.33;27.67;;;;;-2.10;83.65;98122.06;4904776;28;104174;-71
2023/03/28 02:27:21;;;;;;;;;35.00;31.33;;;;;-2.02;85.70;98120.41;4911219;28;102181;-70
2023/03/28 02:29:49;;;;;;;;;32.00;32.00;;;;;-1.94;87.59;98117.97;4904902;28;102412;-71
2023/03/28 02:32:16;;;;;;;;;37.67;31.33;;;;;-1.87;88.82;98120.88;4908265;28;102314;-71
2023/03/28 02:34:47;;;;;;;;;38.67;33.67;;;;;-1.83;88.80;98112.53;4902045;28;104144;-71
2023/03/28 02:37:46;;;;;;;;;31.33;30.67;;;;;-1.78;88.75;98112.13;4912709;28;102232;-71
2023/03/28 02:40:28;;;;;;;;;30.33;26.00;;;;;-1.72;90.32;98108.09;4899282;28;102170;-71
2023/03/28 02:43:04;;;;;;;;;28.67;21.33;;;;;-1.61;88.99;98108.81;4902618;28;101959;-71
2023/03/28 02:45:53;;;;;;;;;28.67;18.00;;;;;-1.52;88.65;98113.28;4911322;28;103980;-71
2023/03/28 02:48:39;;;;;;;;;21.67;17.00;;;;;-1.45;89.93;98113.59;4902826;28;102243;-71
2023/03/28 02:51:21;;;;;;;;;18.67;13.00;;;;;-1.37;89.49;98122.53;4907602;28;102260;-71
2023/03/28 02:54:03;;;;;;;;;10.33;9.33;;;;;-1.28;87.57;98115.53;4909888;28;102003;-71
2023/03/28 02:56:49;;;;;;;;;16.33;13.00;;;;;-1.27;88.09;98108.44;4904839;28;104094;-71
2023/03/28 02:59:30;;;;;;;;;12.67;12.00;;;;;-1.21;88.45;98115.81;4899905;28;104516;-70
2023/03/28 03:01:58;;;;;;;;;17.00;15.33;;;;;-1.18;87.42;98111.09;4905144;28;102209;-71
2023/03/28 03:04:25;;;;;;;;;17.67;12.33;;;;;-1.13;86.95;98100.91;4911097;28;102399;-71
2023/03/28 03:06:52;;;;;;;;;24.00;19.00;;;;;-1.17;89.01;98101.31;4906937;28;104041;-70
2023/03/28 03:09:19;;;;;;;;;24.67;18.67;;;;;-1.17;89.35;98102.13;4909756;28;104224;-70
2023/03/28 03:11:46;;;;;;;;;23.67;20.00;;;;;-1.19;89.15;98104.09;4902937;28;102433;-71
2023/03/28 03:14:13;;;;;;;;;17.33;14.00;;;;;-1.10;87.52;98113.03;4910527;28;103872;-71
2023/03/28 03:16:41;;;;;;;;;11.33;8.67;;;;;-1.07;87.35;98104.78;4909377;28;104120;-69
2023/03/28 03:19:09;;;;;;;;;10.33;10.33;;;;;-1.00;86.75;98104.09;4902663;28;102409;-70
2023/03/28 03:21:36;;;;;;;;;8.00;8.00;;;;;-0.99;87.48;98103.09;4913315;28;102329;-69
2023/03/28 03:24:03;;;;;;;;;10.33;10.33;;;;;-0.95;87.84;98111.63;4913255;28;102851;-70
2023/03/28 03:26:30;;;;;;;;;16.67;12.00;;;;;-0.96;87.20;98110.78;4913586;28;104107;-70
2023/03/28 03:28:59;;;;;;;;;21.33;19.67;;;;;-1.13;87.49;98108.84;4902702;28;102221;-71
2023/03/28 03:31:26;;;;;;;;;30.67;25.00;;;;;-1.18;89.11;98103.13;4906423;28;102382;-70
2023/03/28 03:33:54;;;;;;;;;33.33;24.67;;;;;-1.15;89.76;98102.84;4898651;28;102419;-71
2023/03/28 03:36:21;;;;;;;;;25.33;18.67;;;;;-1.13;89.38;98092.94;4904732;28;104030;-71
2023/03/28 03:38:47;;;;;;;;;14.33;12.00;;;;;-1.10;88.13;98100.59;4911250;28;102457;-71
2023/03/28 03:41:15;;;;;;;;;25.33;23.33;;;;;-1.15;89.44;98100.19;4909236;28;102299;-70
2023/03/28 03:43:42;;;;;;;;;20.00;16.33;;;;;-1.02;89.50;98099.91;4917215;28;101993;-71
2023/03/28 03:46:11;;;;;;;;;20.33;15.00;;;;;-1.05;87.74;98101.03;4913012;28;104038;-71
2023/03/28 03:48:38;;;;;;;;;22.67;15.33;;;;;-1.02;88.27;98098.09;4909936;28;102166;-71
2023/03/28 03:51:16;;;;;;;;;18.00;17.00;;;;;-1.06;88.87;98090.53;4909570;28;102511;-71
2023/03/28 03:53:43;;;;;;;;;22.00;17.33;;;;;-1.18;88.29;98079.25;4915234;28;102067;-71
2023/03/28 03:56:10;;;;;;;;;23.67;21.00;;;;;-1.17;89.16;98086.22;4900025;28;104051;-71
2023/03/28 03:58:37;;;;;;;;;28.33;21.33;;;;;-1.12;90.36;98099.91;4916580;28;105330;-70
2023/03/28 04:01:04;;;;;;;;;20.67;18.33;;;;;-1.07;89.35;98095.00;4915458;28;102373;-71
2023/03/28 04:03:33;;;;;;;;;18.00;16.67;;;;;-1.09;89.90;98088.19;4903059;28;102908;-71
2023/03/28 04:06:00;;;;;;;;;19.00;15.00;;;;;-1.06;88.99;98096.69;4909978;28;103995;-71
2023/03/28 04:08:27;;;;;;;;;20.67;16.67;;;;;-1.04;89.84;98096.56;4695934;28;103340;-71
2023/03/28 04:10:55;;;;;;;;;23.33;21.00;;;;;-1.09;88.94;98090.84;4894426;28;102416;-71
2023/03/28 04:13:22;;;;;;;;;18.00;13.00;;;;;-1.08;89.36;98093.34;4898087;28;103297;-72
2023/03/28 04:15:49;;;;;;;;;19.33;16.67;;;;;-1.07;89.65;98097.66;4908890;28;104035;-72
2023/03/28 04:18:19;;;;;;;;;21.67;18.67;;;;;-1.06;89.23;98083.44;4910628;28;102170;-72
2023/03/28 04:20:54;;;;;;;;;29.00;27.67;;;;;-1.16;90.01;98097.66;4900273;28;102318;-71
2023/03/28 04:23:24;;;;;;;;;34.00;28.00;;;;;-1.25;90.04;98106.47;4904364;28;102032;-72
2023/03/28 04:26:00;;;;;;;;;27.33;22.67;;;;;-1.20;90.67;98102.41;4906274;28;104015;-71
2023/03/28 04:28:27;;;;;;;;;24.00;20.67;;;;;-1.61;91.72;98034.59;4912233;28;102466;-72
2023/03/28 04:30:58;;;;;;;;;29.67;25.33;;;;;-1.30;91.57;98106.03;4912343;28;104349;-72
2023/03/28 04:33:32;;;;;;;;;25.00;19.67;;;;;-1.55;91.00;98031.41;4907300;28;102208;-72
2023/03/28 04:36:00;;;;;;;;;30.00;24.33;;;;;-1.16;92.00;98103.81;4903244;28;104192;-72
2023/03/28 04:38:36;;;;;;;;;32.33;30.33;;;;;-1.24;91.98;98094.88;4913613;28;102724;-70
2023/03/28 04:41:04;;;;;;;;;30.67;25.00;;;;;-1.17;91.11;98091.53;4913843;28;102340;-71
2023/03/28 04:43:31;;;;;;;;;25.00;20.33;;;;;-1.05;91.43;98079.81;4901522;28;102419;-72
2023/03/28 04:45:58;;;;;;;;;34.00;26.00;;;;;-1.02;90.29;98094.59;4901166;28;103935;-71
2023/03/28 04:48:26;;;;;;;;;20.67;18.33;;;;;-0.94;90.57;98098.22;4906904;28;102080;-71
2023/03/28 04:50:54;;;;;;;;;21.00;20.00;;;;;-0.91;89.60;98095.28;4911099;28;102878;-72
2023/03/28 04:53:21;;;;;;;;;20.33;15.67;;;;;-0.87;89.15;98095.84;4910253;28;102445;-72
2023/03/28 04:55:49;;;;;;;;;25.33;23.67;;;;;-0.87;91.54;98095.00;4920798;28;104164;-71
2023/03/28 04:58:17;;;;;;;;;23.33;19.00;;;;;-0.97;95.92;98106.47;4914826;28;102328;-71
2023/03/28 05:00:47;;;;;;;;;18.33;17.33;;;;;-1.15;99.56;98099.34;4910748;28;102020;-71
2023/03/28 05:03:19;;;;;;;;;21.67;19.67;;;;;-1.21;100.00;98106.03;4898277;28;102491;-71
2023/03/28 05:05:48;;;;;;;;;20.67;18.00;;;;;-1.30;100.00;98096.28;4901326;28;104098;-72
2023/03/28 05:08:17;;;;;;;;;24.67;20.33;;;;;-1.28;100.00;98098.78;4908007;28;102392;-71
2023/03/28 05:10:44;;;;;;;;;29.00;21.00;;;;;-1.41;100.00;98084.00;4909115;28;102189;-72
2023/03/28 05:13:12;;;;;;;;;14.67;11.33;;;;;-1.12;100.00;98101.72;4903042;28;102301;-71
2023/03/28 05:15:41;;;;;;;;;11.33;9.33;;;;;-1.04;100.00;98105.38;4898091;28;104013;-73
2023/03/28 05:18:08;;;;;;;;;15.33;11.33;;;;;-1.04;100.00;98104.53;4915168;28;102205;-71
2023/03/28 05:20:35;;;;;;;;;32.67;24.67;;;;;-1.31;100.00;98109.69;4908486;28;101862;-73
2023/03/28 05:23:04;;;;;;;;;24.00;20.67;;;;;-1.31;100.00;98109.69;4913480;28;102444;-71
2023/03/28 05:25:32;;;;;;;;;30.67;19.67;;;;;-1.27;100.00;98111.94;4916115;28;103949;-72
2023/03/28 05:28:00;;;;;;;;;26.33;25.00;;;;;-1.24;100.00;98108.97;4916119;28;102803;-72
2023/03/28 05:30:27;;;;;;;;;25.67;23.33;;;;;-1.16;99.19;98098.50;4909613;28;110532;-72
2023/03/28 05:32:54;;;;;;;;;30.00;26.33;;;;;-1.08;98.64;98106.59;4912402;28;101919;-72
2023/03/28 05:35:21;;;;;;;;;31.00;24.00;;;;;-1.02;96.60;98116.66;4890952;28;104189;-70
2023/03/28 05:37:48;;;;;;;;;39.00;29.67;;;;;-0.97;95.47;98102.97;4914899;28;102027;-70
2023/03/28 05:40:15;;;;;;;;;34.67;26.00;;;;;-0.92;96.35;98106.88;4914559;28;102384;-71
2023/03/28 05:42:42;;;;;;;;;26.67;22.33;;;;;-0.73;96.60;98121.09;4904832;28;102174;-72
2023/03/28 05:45:11;;;;;;;;;35.33;29.00;;;;;-0.75;94.54;98109.78;4907828;28;108711;-71
2023/03/28 05:47:38;;;;;;;;;38.33;30.33;;;;;-0.66;94.36;98107.09;4905949;28;102417;-71
2023/03/28 05:50:06;;;;;;;;;27.67;23.67;;;;;-0.53;94.04;98120.91;4908045;28;102446;-72
2023/03/28 05:52:34;;;;;;;;;28.00;23.00;;;;;-0.54;93.06;98118.41;4905138;28;101960;-72
2023/03/28 05:55:01;;;;;;;;;33.00;27.33;;;;;-0.59;93.41;98125.97;4904510;28;104064;-70
2023/03/28 05:57:28;;;;;;;;;21.33;18.33;;;;;-0.64;93.15;98126.41;4910328;28;102155;-70
2023/03/28 05:59:54;;;;;;;;;24.67;19.00;;;;;-0.59;94.07;98125.97;4909440;28;102137;-71
2023/03/28 06:02:23;;;;;;;;;19.33;17.00;;;;;-0.57;93.13;98126.66;4915492;28;102418;-70
2023/03/28 06:04:52;;;;;;;;;22.67;16.00;;;;;-0.60;92.21;98121.63;4913957;28;104140;-71
2023/03/28 06:07:20;;;;;;;;;23.00;19.33;;;;;-0.44;93.28;98129.81;4912974;28;102432;-70
2023/03/28 06:10:06;;;;;;;;;14.67;12.67;;;;;-0.33;91.53;98134.16;4907542;28;103066;-71
2023/03/28 06:12:33;;;;;;;;;18.67;15.00;;;;;-0.24;91.34;98128.81;4893915;28;102200;-71
2023/03/28 06:15:00;;;;;;;;;12.00;12.00;;;;;-0.32;91.62;98135.81;4910530;28;104039;-71
2023/03/28 06:17:27;;;;;;;;;12.00;12.00;;;;;-0.27;93.92;98142.34;4913364;28;102016;-71
2023/03/28 06:19:54;;;;;;;;;15.67;12.67;;;;;-0.38;94.83;98141.69;4912630;28;103285;-72
2023/03/28 06:22:21;;;;;;;;;15.67;11.33;;;;;-0.51;92.86;98142.00;4905317;28;102276;-70
2023/03/28 06:24:48;;;;;;;;;9.00;8.00;;;;;-0.54;92.88;98131.69;4907088;28;103798;-70
2023/03/28 06:27:15;;;;;;;;;11.00;6.33;;;;;-0.48;91.40;98147.88;4918479;28;102101;-72
2023/03/28 06:29:42;;;;;;;;;8.00;8.00;;;;;-0.44;91.63;98151.06;4911367;28;110447;-71
2023/03/28 06:32:11;;;;;;;;;5.67;5.67;;;;;-0.69;91.77;98159.66;4915810;28;102623;-70
2023/03/28 06:34:38;;;;;;;;;8.00;8.00;;;;;-0.94;99.00;98171.66;4910696;28;104077;-70
2023/03/28 06:37:05;;;;;;;;;5.33;5.00;;;;;-1.18;100.00;98177.41;4916058;28;102321;-70
2023/03/28 06:39:32;;;;;;;;;11.33;8.33;;;;;-1.27;100.00;98186.19;4914212;28;104739;-71
2023/03/28 06:42:02;;;;;;;;;6.67;5.33;;;;;-1.37;100.00;98153.50;4906187;28;102171;-71
2023/03/28 06:44:29;;;;;;;;;6.33;6.33;;;;;-1.30;100.00;98165.22;4916254;28;104024;-71
2023/03/28 06:46:57;;;;;;;;;9.00;5.00;;;;;-1.26;97.14;98177.22;4901907;28;102118;-71
2023/03/28 06:49:24;;;;;;;;;6.00;5.00;;;;;-1.18;96.14;98177.41;4902967;28;103467;-71
2023/03/28 06:51:51;;;;;;;;;5.00;2.00;;;;;-1.12;91.85;98175.97;4912654;28;102416;-71
2023/03/28 06:54:18;;;;;;;;;4.00;4.00;;;;;-1.00;90.98;98185.50;4900072;28;104159;-71
2023/03/28 06:56:45;;;;;;;;;6.33;4.67;;;;;-0.94;89.52;98183.13;4906992;28;102131;-70
2023/03/28 06:59:13;;;;;;;;;5.00;4.00;;;;;-0.84;89.59;98195.53;4903815;28;104167;-71
2023/03/28 07:01:40;;;;;;;;;4.33;3.67;;;;;-0.65;88.62;98195.56;4911640;28;102367;-71
2023/03/28 07:04:07;;;;;;;;;5.67;4.67;;;;;-0.48;88.08;98195.66;4914917;28;104047;-71
2023/03/28 07:06:34;;;;;;;;;5.00;4.67;;;;;-0.19;86.30;98200.09;4909567;28;101986;-70
2023/03/28 07:09:01;;;;;;;;;3.33;2.00;;;;;-0.19;85.43;98202.75;4899327;28;101807;-71
2023/03/28 07:11:31;;;;;;;;;5.00;5.00;;;;;-0.19;86.18;98214.22;4906850;28;102672;-71
2023/03/28 07:13:58;;;;;;;;;5.67;4.33;;;;;-0.16;85.32;98205.94;4913128;28;103994;-71
2023/03/28 07:16:25;;;;;;;;;8.00;6.00;;;;;-0.08;84.17;98219.34;4912676;28;102427;-71
2023/03/28 07:18:52;;;;;;;;;6.67;6.00;;;;;-0.25;83.10;98220.09;4909380;28;102793;-70
2023/03/28 07:21:19;;;;;;;;;5.67;5.33;;;;;-0.07;84.04;98225.50;4910824;28;102368;-70
2023/03/28 07:23:46;;;;;;;;;9.67;8.00;;;;;-0.04;82.28;98220.75;4909001;28;104224;-71
2023/03/28 07:26:14;;;;;;;;;12.00;8.00;;;;;0.02;82.69;98229.13;4914575;28;102430;-71
2023/03/28 07:28:42;;;;;;;;;6.67;6.00;;;;;0.05;82.69;98223.50;4909974;28;101786;-70
2023/03/28 07:31:09;;;;;;;;;8.00;6.67;;;;;0.05;82.05;98242.94;4902588;28;104818;-71
2023/03/28 07:33:37;;;;;;;;;4.33;4.00;;;;;-0.07;80.96;98242.28;4909252;28;104163;-71
2023/03/28 07:36:10;;;;;;;;;7.33;5.33;;;;;0.05;78.89;98247.44;4909180;28;102213;-72
2023/03/28 07:38:37;;;;;;;;;5.33;5.00;;;;;0.06;79.32;98236.66;4912823;28;102505;-71
2023/03/28 07:41:05;;;;;;;;;4.67;4.00;;;;;0.06;79.99;98257.09;4911009;28;102078;-71
2023/03/28 07:43:32;;;;;;;;;4.00;4.00;;;;;0.03;80.45;98246.75;4904983;28;104164;-71
2023/03/28 07:46:01;;;;;;;;;4.67;4.00;;;;;-0.18;80.04;98241.63;4906054;28;102475;-71
2023/03/28 07:48:29;;;;;;;;;4.33;4.00;;;;;-0.15;80.63;98255.47;4921306;28;102536;-71
2023/03/28 07:51:06;;;;;;;;;4.00;4.00;;;;;-0.11;80.31;98269.28;4918422;28;101934;-70
2023/03/28 07:53:43;;;;;;;;;4.00;2.00;;;;;0.09;80.63;98267.44;4900790;28;103042;-71
2023/03/28 07:56:10;;;;;;;;;5.00;4.67;;;;;0.15;78.08;98270.34;4903874;28;102404;-71
2023/03/28 07:58:39;;;;;;;;;6.67;5.00;;;;;0.29;78.37;98274.38;4913604;28;102368;-70
2023/03/28 08:01:08;;;;;;;;;5.00;4.67;;;;;0.35;75.81;98273.81;4910674;28;102478;-72
2023/03/28 08:03:35;;;;;;;;;2.00;2.00;;;;;0.38;75.91;98271.69;4902313;28;104030;-70
2023/03/28 08:06:04;;;;;;;;;4.00;4.00;;;;;0.47;75.26;98285.94;4905771;28;102127;-70
2023/03/28 08:08:42;;;;;;;;;2.00;2.00;;;;;0.51;75.83;98299.75;4909024;28;102114;-71
2023/03/28 08:11:11;;;;;;;;;4.00;4.00;;;;;0.14;77.69;98295.25;4916835;28;103670;-71
2023/03/28 08:13:38;;;;;;;;;4.00;4.00;;;;;0.17;79.38;98302.97;4914064;28;104450;-71
2023/03/28 08:16:05;;;;;;;;;5.00;2.00;;;;;0.08;79.63;98303.81;4912955;28;102899;-70
2023/03/28 08:18:32;;;;;;;;;4.33;4.00;;;;;0.16;79.16;98303.09;4907127;28;102519;-71
2023/03/28 08:21:01;;;;;;;;;5.67;5.33;;;;;0.19;80.34;98297.47;4912077;28;102146;-71
2023/03/28 08:23:28;;;;;;;;;6.00;5.00;;;;;0.47;77.75;98295.72;4904079;28;104098;-71
2023/03/28 08:26:01;;;;;;;;;5.25;5.00;;;;;0.79;76.22;98304.97;4905935;28;102119;-70
2023/03/28 08:28:28;;;;;;;;;4.00;4.00;;;;;0.67;76.52;98330.09;4913299;28;102395;-71
2023/03/28 08:30:55;;;;;;;;;5.67;4.00;;;;;0.93;77.46;98311.63;4911923;28;102054;-71
2023/03/28 08:33:22;;;;;;;;;3.00;2.00;;;;;1.01;75.72;98310.88;4908289;28;104009;-71
2023/03/28 08:35:52;;;;;;;;;4.50;2.00;;;;;0.83;76.96;98306.34;4911361;28;101989;-71
2023/03/28 08:38:19;;;;;;;;;2.00;2.00;;;;;0.94;75.75;98325.78;4903322;28;102011;-70
2023/03/28 08:41:21;;;;;;;;;4.50;4.00;;;;;0.18;84.32;98339.16;4918685;28;102260;-69
2023/03/28 08:43:51;;;;;;;;;5.00;4.00;;;;;-0.53;85.37;98345.75;4871678;28;109351;-70
2023/03/28 08:46:21;;;;;;;;;5.50;5.00;;;;;-0.61;88.23;98353.59;4908044;28;102235;-71
2023/03/28 08:48:51;;;;;;;;;8.00;6.00;;;;;-0.43;85.88;98349.28;4909383;28;102471;-71
2023/03/28 08:51:21;;;;;;;;;5.00;5.00;;;;;-0.13;82.12;98354.44;4916530;28;102003;-70
2023/03/28 08:54:07;;;;;;;;;2.00;2.00;;;;;0.05;80.66;98349.25;4907536;28;108509;-70
2023/03/28 08:56:41;;;;;;;;;4.00;4.00;;;;;0.08;79.73;98362.28;4904684;28;102296;-71
2023/03/28 08:59:15;;;;;;;;;3.33;3.33;;;;;0.15;78.47;98368.72;4903750;28;102017;-70
2023/03/28 09:01:43;;;;;;;;;6.00;5.00;;;;;0.21;81.32;98368.16;4904438;28;102402;-70
2023/03/28 09:04:24;;;;;;;;;5.00;4.33;;;;;0.32;76.50;98364.47;4904123;28;104102;-70
2023/03/28 09:07:02;;;;;;;;;4.00;4.00;;;;;0.43;72.69;98388.25;4912203;28;102314;-70
2023/03/28 09:09:42;;;;;;;;;3.00;1.25;;;;;0.28;67.78;98385.19;4917049;28;102197;-71
2023/03/28 09:12:26;;;;;;;;;2.75;1.75;;;;;0.37;68.79;98378.19;4916219;28;102507;-70
2023/03/28 09:15:34;;;;;;;;;2.00;2.00;;;;;0.20;74.24;98398.38;4923718;28;108765;-70
2023/03/28 09:18:30;;;;;;;;;6.67;6.00;;;;;-0.23;83.29;98400.63;4906613;28;102176;-70
2023/03/28 09:20:57;;;;;;;;;7.33;6.00;;;;;-0.14;85.11;98411.25;4911742;28;102375;-70
2023/03/28 09:23:52;;;;;;;;;6.00;4.67;;;;;-0.13;84.38;98415.56;4918551;28;102288;-70
2023/03/28 09:26:26;;;;;;;;;9.00;6.00;;;;;0.00;84.47;98396.72;4915230;28;108602;-71
2023/03/28 09:29:04;;;;;;;;;9.00;8.00;;;;;0.36;82.20;98409.25;4913448;28;102093;-70
2023/03/28 09:31:44;;;;;;;;;11.33;6.00;;;;;1.14;82.17;98397.41;4905919;28;101793;-71
2023/03/28 09:34:20;;;;;;;;;5.00;5.00;;;;;1.21;74.36;98395.03;4908900;28;102573;-70
2023/03/28 09:36:52;;;;;;;;;8.00;6.00;;;;;1.11;75.37;98383.56;4906512;28;108749;-71
2023/03/28 09:39:31;;;;;;;;;4.00;4.00;;;;;0.99;73.61;98398.88;4900807;28;102300;-71
2023/03/28 09:42:10;;;;;;;;;8.00;6.75;;;;;0.72;76.96;98414.81;4899549;28;102345;-71
2023/03/28 09:44:46;;;;;;;;;9.00;8.00;;;;;0.02;84.21;98417.81;4914201;28;102210;-71
2023/03/28 09:47:21;;;;;;;;;9.00;8.00;;;;;-0.57;92.85;98439.94;4900246;28;108263;-70
2023/03/28 09:49:48;;;;;;;;;8.00;8.00;;;;;-0.72;93.15;98441.31;4913172;28;102142;-71
2023/03/28 09:52:25;;;;;;;;;8.00;6.00;;;;;-0.91;91.12;98387.19;4903700;28;102253;-71
2023/03/28 09:54:52;;;;;;;;;10.33;8.00;;;;;-0.46;87.12;98434.53;4901794;28;102054;-71
2023/03/28 09:57:19;;;;;;;;;5.33;5.33;;;;;-0.15;85.10;98435.28;4909211;28;103973;-72
2023/03/28 09:59:46;;;;;;;;;7.33;6.67;;;;;0.30;81.12;98424.94;4903002;28;102761;-71
2023/03/28 10:02:31;;;;;;;;;5.00;5.00;;;;;0.79;76.81;98437.19;4902983;28;102296;-71
2023/03/28 10:04:58;;;;;;;;;5.67;4.00;;;;;1.21;72.94;98432.31;4889956;28;101970;-71
2023/03/28 10:07:41;;;;;;;;;5.00;4.00;;;;;1.22;72.04;98432.13;4911017;28;104658;-71
2023/03/28 10:10:23;;;;;;;;;4.50;2.00;;;;;1.04;66.91;98431.22;4904400;28;102174;-71
2023/03/28 10:12:57;;;;;;;;;6.00;4.00;;;;;1.10;70.54;98443.13;4910344;28;102346;-72
2023/03/28 10:15:40;;;;;;;;;4.75;2.00;;;;;1.15;68.03;98446.19;4917919;28;102312;-71
2023/03/28 10:18:14;;;;;;;;;4.50;4.50;;;;;1.03;64.97;98455.34;4914098;28;104288;-72
2023/03/28 10:20:41;;;;;;;;;4.75;4.00;;;;;0.96;63.46;98444.41;4916744;28;102358;-71
2023/03/28 10:23:12;;;;;;;;;1.00;1.00;;;;;1.02;59.62;98453.66;4914743;28;102273;-71
2023/03/28 10:25:41;;;;;;;;;2.00;2.00;;;;;1.03;61.35;98458.00;4916078;28;102531;-70
2023/03/28 10:28:35;;;;;;;;;2.00;1.00;;;;;0.99;61.15;98406.03;4910399;28;104009;-71
2023/03/28 10:31:03;;;;;;;;;3.50;3.00;;;;;1.34;62.22;98452.28;4903773;28;102102;-71
2023/03/28 10:33:45;;;;;;;;;4.00;4.00;;;;;1.42;65.78;98448.88;4908499;28;102040;-71
2023/03/28 10:36:28;;;;;;;;;2.00;1.00;;;;;1.44;65.34;98444.22;4915075;28;102108;-71
2023/03/28 10:38:55;;;;;;;;;5.25;4.75;;;;;1.39;65.21;98457.19;4911785;28;108790;-71
2023/03/28 10:41:24;;;;;;;;;5.25;4.00;;;;;1.14;65.60;98468.47;4912271;28;102144;-71
2023/03/28 10:43:52;;;;;;;;;5.00;5.00;;;;;1.38;65.51;98467.97;4913610;28;103281;-71
2023/03/28 10:46:25;;;;;;;;;4.00;2.25;;;;;1.55;66.92;98465.34;4917875;28;102021;-71
2023/03/28 10:49:00;;;;;;;;;6.00;4.00;;;;;1.69;66.07;98469.34;4911868;28;108751;-71
2023/03/28 10:51:33;;;;;;;;;3.75;2.25;;;;;1.49;66.81;98473.94;4905926;28;101965;-71
2023/03/28 10:54:38;;;;;;;;;5.00;4.50;;;;;1.66;66.00;98473.16;4923363;28;101859;-71
2023/03/28 10:57:24;;;;;;;;;5.50;3.25;;;;;1.28;68.54;98481.31;4838109;28;102048;-70
2023/03/28 11:00:13;;;;;;;;;8.50;4.75;;;;;1.14;68.86;98474.63;4879742;28;103973;-71
2023/03/28 11:03:06;;;;;;;;;5.50;4.00;;;;;1.30;70.83;98482.03;4909989;28;102133;-72
2023/03/28 11:05:45;;;;;;;;;4.00;4.00;;;;;1.50;64.25;98475.63;4907243;28;102522;-71
2023/03/28 11:08:45;;;;;;;;;6.25;4.50;;;;;2.15;63.60;98476.38;4904006;28;102368;-72
2023/03/28 11:11:49;;;;;;;;;3.00;3.00;;;;;2.57;59.53;98465.91;4904270;28;108728;-71
2023/03/28 11:14:25;;;;;;;;;2.00;2.00;;;;;2.40;59.94;98477.44;4906928;28;102026;-72
2023/03/28 11:17:17;;;;;;;;;2.50;2.00;;;;;1.88;59.41;98468.41;4896930;28;102283;-71
2023/03/28 11:20:09;;;;;;;;;1.75;1.00;;;;;1.68;59.20;98478.34;4911804;28;102310;-71
2023/03/28 11:22:36;;;;;;;;;1.00;1.00;;;;;1.63;58.93;98475.28;4907502;28;109371;-71
2023/03/28 11:25:22;;;;;;;;;2.75;1.00;;;;;1.34;59.05;98489.56;4908974;28;103257;-71
2023/03/28 11:28:05;;;;;;;;;1.00;0.00;;;;;1.47;62.04;98488.41;4925600;28;102351;-71
2023/03/28 11:30:43;;;;;;;;;2.50;1.50;;;;;1.67;61.35;98485.47;4905636;28;102364;-70
2023/03/28 11:33:32;;;;;;;;;1.25;1.00;;;;;1.63;61.02;98484.09;4899355;28;103511;-71
2023/03/28 11:36:07;;;;;;;;;3.00;3.00;;;;;1.38;58.90;98497.25;4905982;28;112937;-70
2023/03/28 11:38:43;;;;;;;;;4.50;2.75;;;;;1.27;63.34;98491.13;4900287;28;102630;-72
2023/03/28 11:41:18;;;;;;;;;5.50;4.00;;;;;1.35;60.13;98485.09;4913501;28;102453;-71
2023/03/28 11:44:13;;;;;;;;;2.50;2.50;;;;;1.50;61.85;98490.75;4906447;28;104124;-71
2023/03/28 11:46:43;;;;;;;;;6.25;4.75;;;;;1.88;62.29;98479.91;4907913;28;103245;-71
2023/03/28 11:49:22;;;;;;;;;5.00;5.00;;;;;2.36;62.76;98487.56;4914257;28;101872;-71
2023/03/28 11:51:53;;;;;;;;;8.50;8.50;;;;;2.35;62.41;98472.56;4907518;28;102612;-71